Time;durP1;ratioP1;P1;durP2;ratioP2;P2;SDS_P1;SDS_P2;PMS_P1;PMS_P2;Temp;Humidity;BMP_temperature;BMP_pressure;BME280_temperature;BME280_humidity;BME280_pressure;Samples;Min_cycle;Max_cycle;Signal;HPM_P1;HPM_P2
2021/11/27 00:00:07;;;;;;;54.87;23.03;;;1.10;99.90;;;;;;5219257;28;20204;-68
2021/11/27 00:02:40;;;;;;;44.73;22.67;;;1.10;99.90;;;;;;5235552;28;20314;-68
2021/11/27 00:05:14;;;;;;;46.33;21.47;;;1.10;99.90;;;;;;5235727;28;20204;-68
2021/11/27 00:07:46;;;;;;;50.33;21.50;;;1.10;99.90;;;;;;5253109;28;20221;-67
2021/11/27 00:10:22;;;;;;;51.90;24.90;;;1.10;99.90;;;;;;5253706;28;20495;-64
2021/11/27 00:12:58;;;;;;;68.90;27.90;;;1.10;99.90;;;;;;5237050;28;20224;-68
2021/11/27 00:15:31;;;;;;;75.90;30.07;;;1.10;99.90;;;;;;5256442;28;20552;-71
2021/11/27 00:18:04;;;;;;;71.27;30.40;;;1.10;99.90;;;;;;5254690;28;20247;-67
2021/11/27 00:20:52;;;;;;;66.53;29.70;;;1.10;99.90;;;;;;5253036;28;20306;-68
2021/11/27 00:23:26;;;;;;;61.93;27.30;;;1.10;99.90;;;;;;5252704;28;20630;-65
2021/11/27 00:25:59;;;;;;;61.40;26.80;;;1.10;99.90;;;;;;5252686;28;20227;-69
2021/11/27 00:28:34;;;;;;;48.10;23.80;;;1.10;99.90;;;;;;5258156;28;20248;-67
2021/11/27 00:31:14;;;;;;;52.60;24.20;;;1.10;99.90;;;;;;5246990;28;20210;-69
2021/11/27 00:33:51;;;;;;;49.87;24.43;;;1.10;99.90;;;;;;5273546;28;20259;-67
2021/11/27 00:36:26;;;;;;;50.13;22.30;;;1.10;99.90;;;;;;5273391;28;20207;-69
2021/11/27 00:38:58;;;;;;;47.37;22.37;;;1.10;99.90;;;;;;5273188;28;20295;-66
2021/11/27 00:41:30;;;;;;;52.13;23.33;;;1.10;99.90;;;;;;5273468;28;20204;-70
2021/11/27 00:44:03;;;;;;;52.17;23.73;;;1.00;99.90;;;;;;5273254;28;20228;-68
2021/11/27 00:46:40;;;;;;;52.63;23.13;;;1.00;99.90;;;;;;5273162;28;20228;-67
2021/11/27 00:49:15;;;;;;;50.30;23.30;;;1.00;99.90;;;;;;5255242;28;20234;-66
2021/11/27 00:51:48;;;;;;;52.60;24.07;;;1.00;99.90;;;;;;5273183;28;20275;-69
2021/11/27 00:54:21;;;;;;;51.73;23.30;;;1.00;99.90;;;;;;5253495;28;20224;-70
2021/11/27 00:56:56;;;;;;;60.73;24.03;;;1.00;99.90;;;;;;5271844;28;20592;-68
2021/11/27 00:59:28;;;;;;;46.37;22.33;;;1.00;99.90;;;;;;5249451;28;20227;-67
2021/11/27 01:02:01;;;;;;;48.70;22.57;;;1.00;99.90;;;;;;5273841;28;20304;-67
2021/11/27 01:04:34;;;;;;;53.00;22.30;;;1.00;99.90;;;;;;5238420;28;20224;-66
2021/11/27 01:07:06;;;;;;;51.60;23.10;;;1.00;99.90;;;;;;5273090;28;20278;-66
2021/11/27 01:09:41;;;;;;;48.23;22.97;;;1.00;99.90;;;;;;5272627;28;20228;-67
2021/11/27 01:12:13;;;;;;;50.93;25.97;;;1.00;99.90;;;;;;5272793;28;20704;-67
2021/11/27 01:14:45;;;;;;;52.87;24.83;;;1.00;99.90;;;;;;5272303;28;20227;-67
2021/11/27 01:17:18;;;;;;;49.73;24.23;;;1.00;99.90;;;;;;5272323;28;20242;-66
2021/11/27 01:19:50;;;;;;;50.50;24.37;;;1.00;99.90;;;;;;5254482;28;20243;-69
2021/11/27 01:22:22;;;;;;;50.47;24.77;;;1.00;99.90;;;;;;5272704;28;20633;-68
2021/11/27 01:24:54;;;;;;;52.97;24.17;;;1.00;99.90;;;;;;5253642;28;20305;-66
2021/11/27 01:27:27;;;;;;;49.23;25.07;;;1.10;99.90;;;;;;5270708;28;20318;-69
2021/11/27 01:29:59;;;;;;;51.50;24.17;;;1.10;99.90;;;;;;5271374;28;20242;-66
2021/11/27 01:32:31;;;;;;;51.03;24.20;;;1.10;99.90;;;;;;5236934;28;20211;-64
2021/11/27 01:35:04;;;;;;;43.23;22.07;;;1.10;99.90;;;;;;5236555;28;20307;-68
2021/11/27 01:37:38;;;;;;;49.80;22.47;;;1.10;99.90;;;;;;5270991;28;20192;-67
2021/11/27 01:40:14;;;;;;;51.17;23.57;;;1.10;99.90;;;;;;5270865;28;20574;-66
2021/11/27 01:42:50;;;;;;;47.63;23.20;;;1.20;99.90;;;;;;5271361;28;20191;-66
2021/11/27 01:45:26;;;;;;;53.07;24.10;;;1.10;99.90;;;;;;5270718;28;20617;-66
2021/11/27 01:48:11;;;;;;;50.13;23.93;;;1.20;99.90;;;;;;5253126;28;20508;-66
2021/11/27 01:50:52;;;;;;;44.60;23.20;;;1.20;99.90;;;;;;5271845;28;20252;-68
2021/11/27 01:53:25;;;;;;;58.07;25.90;;;1.20;99.90;;;;;;5254812;28;20184;-68
2021/11/27 01:56:00;;;;;;;56.80;26.50;;;1.20;99.90;;;;;;5271830;28;20310;-68
2021/11/27 01:58:33;;;;;;;52.57;25.27;;;1.20;99.90;;;;;;5272399;28;20239;-67
2021/11/27 02:01:13;;;;;;;57.90;25.63;;;1.20;99.90;;;;;;5254319;28;20641;-67
2021/11/27 02:03:47;;;;;;;57.67;26.20;;;1.20;99.90;;;;;;5274438;28;20203;-69
2021/11/27 02:06:21;;;;;;;53.80;25.23;;;1.20;99.90;;;;;;5271528;28;20232;-67
2021/11/27 02:09:00;;;;;;;50.50;23.27;;;1.20;99.90;;;;;;5271653;28;20199;-70
2021/11/27 02:11:36;;;;;;;48.67;24.13;;;1.20;99.90;;;;;;5271232;28;20323;-72
2021/11/27 02:14:09;;;;;;;49.77;23.73;;;1.20;99.90;;;;;;5271625;28;20279;-69
2021/11/27 02:16:42;;;;;;;52.77;24.60;;;1.30;99.90;;;;;;5271810;28;20242;-67
2021/11/27 02:19:15;;;;;;;59.47;27.27;;;1.30;99.90;;;;;;5237998;28;20228;-66
2021/11/27 02:21:48;;;;;;;54.90;26.43;;;1.30;99.90;;;;;;5272574;28;20238;-68
2021/11/27 02:24:23;;;;;;;62.87;26.83;;;1.30;99.90;;;;;;5272357;28;20308;-67
2021/11/27 02:26:55;;;;;;;63.50;27.27;;;1.30;99.90;;;;;;5272362;28;20231;-68
2021/11/27 02:29:31;;;;;;;63.80;28.03;;;1.30;99.90;;;;;;5254405;28;20366;-70
2021/11/27 02:32:04;;;;;;;59.23;28.23;;;1.30;99.90;;;;;;5271616;28;20672;-68
2021/11/27 02:34:39;;;;;;;54.73;27.27;;;1.30;99.90;;;;;;5271872;28;20207;-67
2021/11/27 02:37:11;;;;;;;64.90;28.10;;;1.30;99.90;;;;;;5271397;28;20720;-68
2021/11/27 02:39:43;;;;;;;58.87;26.73;;;1.30;99.90;;;;;;5271098;28;20243;-68
2021/11/27 02:42:16;;;;;;;66.37;28.57;;;1.30;99.90;;;;;;5271418;28;20562;-65
2021/11/27 02:44:48;;;;;;;61.43;29.17;;;1.30;99.90;;;;;;5270984;28;20654;-67
2021/11/27 02:47:21;;;;;;;57.90;26.57;;;1.40;99.90;;;;;;5236137;28;20232;-67
2021/11/27 02:49:53;;;;;;;61.07;29.27;;;1.30;99.90;;;;;;5270804;28;20204;-67
2021/11/27 02:52:29;;;;;;;58.60;28.03;;;1.40;99.90;;;;;;5220180;28;20547;-69
2021/11/27 02:55:02;;;;;;;61.47;28.03;;;1.40;99.90;;;;;;5270597;28;20275;-67
2021/11/27 02:57:34;;;;;;;57.83;28.57;;;1.40;99.90;;;;;;5270360;28;20260;-67
2021/11/27 03:00:12;;;;;;;63.87;29.00;;;1.40;99.90;;;;;;5271016;28;20548;-69
2021/11/27 03:02:45;;;;;;;59.37;28.67;;;1.40;99.90;;;;;;5270739;28;20232;-67
2021/11/27 03:05:20;;;;;;;61.53;29.67;;;1.40;99.90;;;;;;5270300;28;20204;-65
2021/11/27 03:07:52;;;;;;;61.90;29.00;;;1.40;99.90;;;;;;5270110;28;20605;-67
2021/11/27 03:10:24;;;;;;;57.50;29.23;;;1.40;99.90;;;;;;5252465;28;20212;-68
2021/11/27 03:12:57;;;;;;;64.80;30.73;;;1.40;99.90;;;;;;5270610;28;20677;-67
2021/11/27 03:15:31;;;;;;;63.10;28.73;;;1.40;99.90;;;;;;5270075;28;20277;-64
2021/11/27 03:18:05;;;;;;;63.13;28.80;;;1.40;99.90;;;;;;5269606;28;20299;-67
2021/11/27 03:20:38;;;;;;;62.03;29.60;;;1.40;99.90;;;;;;5270412;28;20200;-67
2021/11/27 03:23:12;;;;;;;63.00;28.90;;;1.40;99.90;;;;;;5252555;28;20244;-66
2021/11/27 03:25:45;;;;;;;60.90;27.47;;;1.40;99.90;;;;;;5270608;28;20189;-69
2021/11/27 03:28:20;;;;;;;55.60;28.37;;;1.40;99.90;;;;;;5270243;28;20664;-66
2021/11/27 03:30:55;;;;;;;62.13;30.47;;;1.40;99.90;;;;;;5252413;28;20196;-66
2021/11/27 03:33:27;;;;;;;57.97;28.20;;;1.40;99.90;;;;;;5270082;28;20699;-68
2021/11/27 03:36:02;;;;;;;61.40;29.17;;;1.40;99.90;;;;;;5270243;28;20612;-70
2021/11/27 03:38:35;;;;;;;61.20;28.80;;;1.40;99.90;;;;;;5270133;28;20228;-68
2021/11/27 03:41:09;;;;;;;61.27;28.20;;;1.40;99.90;;;;;;5270467;28;20211;-70
2021/11/27 03:43:43;;;;;;;66.97;30.43;;;1.50;99.90;;;;;;5269943;28;20220;-67
2021/11/27 03:46:15;;;;;;;63.00;28.53;;;1.50;99.90;;;;;;5270547;28;20671;-67
2021/11/27 03:48:47;;;;;;;66.60;29.07;;;1.50;99.90;;;;;;5271866;28;20560;-69
2021/11/27 03:51:24;;;;;;;62.07;29.60;;;1.50;99.90;;;;;;5252983;28;20208;-67
2021/11/27 03:53:59;;;;;;;61.87;29.30;;;1.50;99.90;;;;;;5271315;28;20321;-70
2021/11/27 03:56:31;;;;;;;67.67;29.00;;;1.50;99.90;;;;;;5270406;28;20306;-69
2021/11/27 03:59:05;;;;;;;62.97;29.37;;;1.60;99.90;;;;;;5252140;28;20236;-68
2021/11/27 04:01:40;;;;;;;61.33;27.90;;;1.60;99.90;;;;;;5251878;28;20194;-66
2021/11/27 04:04:16;;;;;;;66.20;29.77;;;1.60;99.90;;;;;;5269901;28;20281;-68
2021/11/27 04:06:51;;;;;;;69.90;30.23;;;1.60;99.90;;;;;;5252396;28;20228;-66
2021/11/27 04:09:23;;;;;;;60.57;29.37;;;1.60;99.90;;;;;;5269749;28;20266;-69
2021/11/27 04:11:55;;;;;;;61.60;28.70;;;1.70;99.90;;;;;;5270082;28;20767;-66
2021/11/27 04:14:27;;;;;;;57.90;28.37;;;1.70;99.90;;;;;;5235592;28;20318;-68
2021/11/27 04:17:00;;;;;;;63.83;28.30;;;1.70;99.90;;;;;;5252114;28;20212;-69
2021/11/27 04:19:35;;;;;;;72.70;29.37;;;1.70;99.90;;;;;;5269753;28;20315;-71
2021/11/27 04:22:12;;;;;;;67.77;29.10;;;1.70;99.90;;;;;;5269730;28;20218;-67
2021/11/27 04:24:44;;;;;;;67.97;29.43;;;1.70;99.90;;;;;;5251892;28;20258;-69
2021/11/27 04:27:16;;;;;;;58.43;28.73;;;1.70;99.90;;;;;;5252373;28;20212;-65
2021/11/27 04:29:50;;;;;;;63.33;30.07;;;1.70;99.90;;;;;;5273337;28;20236;-68
2021/11/27 04:32:26;;;;;;;60.87;28.00;;;1.70;99.90;;;;;;5273706;28;20196;-66
2021/11/27 04:35:01;;;;;;;60.43;28.33;;;1.70;99.90;;;;;;5273382;28;20223;-67
2021/11/27 04:37:35;;;;;;;62.73;29.57;;;1.70;99.90;;;;;;5273640;28;20214;-66
2021/11/27 04:40:10;;;;;;;69.53;31.33;;;1.70;99.90;;;;;;5255487;28;20250;-70
2021/11/27 04:42:43;;;;;;;63.37;29.43;;;1.70;99.90;;;;;;5256134;28;20203;-71
2021/11/27 04:45:16;;;;;;;69.47;30.70;;;1.60;99.90;;;;;;5255773;28;20227;-69
2021/11/27 04:47:48;;;;;;;61.37;29.00;;;1.60;99.90;;;;;;5273324;28;20223;-68
2021/11/27 04:50:21;;;;;;;62.33;28.90;;;1.60;99.90;;;;;;5255497;28;20228;-67
2021/11/27 04:52:56;;;;;;;63.17;29.67;;;1.60;99.90;;;;;;5255720;28;20215;-68
2021/11/27 04:55:30;;;;;;;68.87;30.37;;;1.60;99.90;;;;;;5255769;28;20636;-69
2021/11/27 04:58:05;;;;;;;71.27;32.37;;;1.50;99.90;;;;;;5255214;28;20204;-71
2021/11/27 05:00:42;;;;;;;76.43;33.30;;;1.50;99.90;;;;;;5272885;28;20235;-68
2021/11/27 05:03:15;;;;;;;70.90;33.20;;;1.50;99.90;;;;;;5272973;28;20200;-68
2021/11/27 05:05:47;;;;;;;71.10;33.17;;;1.50;99.90;;;;;;5272695;28;20285;-69
2021/11/27 05:08:19;;;;;;;71.10;34.40;;;1.50;99.90;;;;;;5273243;28;20536;-67
2021/11/27 05:10:51;;;;;;;79.23;35.03;;;1.40;99.90;;;;;;5254974;28;20278;-69
2021/11/27 05:13:23;;;;;;;69.40;32.53;;;1.40;99.90;;;;;;5272791;28;20195;-71
2021/11/27 05:15:55;;;;;;;68.53;32.80;;;1.40;99.90;;;;;;5272693;28;20368;-65
2021/11/27 05:18:27;;;;;;;71.83;33.63;;;1.40;99.90;;;;;;5238662;28;20196;-66
2021/11/27 05:21:03;;;;;;;75.77;33.17;;;1.40;99.90;;;;;;5222530;28;20227;-66
2021/11/27 05:23:37;;;;;;;72.53;32.37;;;1.40;99.90;;;;;;5272241;28;20235;-66
2021/11/27 05:26:09;;;;;;;87.30;34.87;;;1.40;99.90;;;;;;5272493;28;20239;-67
2021/11/27 05:28:42;;;;;;;76.70;33.60;;;1.40;99.90;;;;;;5254911;28;20208;-66
2021/11/27 05:31:16;;;;;;;76.47;33.27;;;1.40;99.90;;;;;;5272842;28;20207;-68
2021/11/27 05:36:39;;;;;;;65.77;33.03;;;1.40;99.90;;;;;;5272685;28;20653;-68
2021/11/27 05:39:11;;;;;;;73.90;32.60;;;1.40;99.90;;;;;;5272642;28;20180;-66
2021/11/27 05:41:44;;;;;;;79.50;34.90;;;1.40;99.90;;;;;;5272561;28;20665;-70
2021/11/27 05:44:19;;;;;;;75.57;33.93;;;1.40;99.90;;;;;;5272103;28;20195;-67
2021/11/27 05:46:51;;;;;;;75.93;34.07;;;1.40;99.90;;;;;;5257638;28;20231;-67
2021/11/27 05:49:23;;;;;;;78.43;34.07;;;1.40;99.90;;;;;;5272206;28;20207;-68
2021/11/27 05:51:54;;;;;;;76.50;34.63;;;1.50;99.90;;;;;;5272049;28;20299;-70
2021/11/27 05:54:26;;;;;;;75.00;33.07;;;1.40;99.90;;;;;;5238041;28;20180;-67
2021/11/27 05:56:58;;;;;;;70.67;33.60;;;1.50;99.90;;;;;;5254075;28;20219;-69
2021/11/27 05:59:30;;;;;;;73.33;32.80;;;1.50;99.90;;;;;;5271885;28;20249;-69
2021/11/27 06:02:05;;;;;;;74.73;33.73;;;1.50;99.90;;;;;;5254009;28;20204;-69
2021/11/27 06:04:37;;;;;;;77.80;33.63;;;1.50;99.90;;;;;;5271505;28;20242;-69
2021/11/27 06:07:09;;;;;;;71.53;32.43;;;1.50;99.90;;;;;;5253920;28;20235;-68
2021/11/27 06:09:41;;;;;;;80.93;33.20;;;1.50;99.90;;;;;;5253768;28;20195;-69
2021/11/27 06:12:13;;;;;;;72.93;33.47;;;1.50;99.90;;;;;;5253565;28;20196;-67
2021/11/27 06:14:45;;;;;;;74.83;31.87;;;1.50;99.90;;;;;;5254083;28;20184;-67
2021/11/27 06:17:20;;;;;;;76.63;32.43;;;1.50;99.90;;;;;;5271033;28;20204;-69
2021/11/27 06:19:52;;;;;;;74.97;33.30;;;1.50;99.90;;;;;;5271310;28;20215;-68
2021/11/27 06:22:24;;;;;;;80.60;35.17;;;1.50;99.90;;;;;;5253526;28;20637;-69
2021/11/27 06:24:56;;;;;;;82.20;36.07;;;1.50;99.90;;;;;;5253823;28;20243;-69
2021/11/27 06:27:30;;;;;;;82.77;36.10;;;1.50;99.90;;;;;;5253208;28;20250;-66
2021/11/27 06:30:02;;;;;;;89.50;36.07;;;1.50;99.90;;;;;;5253574;28;20209;-68
2021/11/27 06:32:37;;;;;;;77.27;36.17;;;1.50;99.90;;;;;;5242172;28;20204;-68
2021/11/27 06:35:11;;;;;;;78.47;36.30;;;1.50;99.90;;;;;;5252782;28;20192;-67
2021/11/27 06:37:46;;;;;;;75.70;33.93;;;1.50;99.90;;;;;;5232777;28;20208;-66
2021/11/27 06:40:18;;;;;;;77.07;34.90;;;1.50;99.90;;;;;;5233412;28;20240;-66
2021/11/27 06:42:50;;;;;;;68.93;33.50;;;1.50;99.90;;;;;;5250196;28;20320;-68
2021/11/27 06:45:24;;;;;;;72.90;33.33;;;1.50;99.90;;;;;;5232549;28;20215;-71
2021/11/27 06:47:56;;;;;;;79.37;33.33;;;1.50;99.90;;;;;;5232285;28;20231;-71
2021/11/27 06:50:28;;;;;;;86.67;34.63;;;1.50;99.90;;;;;;5232126;28;20224;-67
2021/11/27 06:53:00;;;;;;;83.93;35.87;;;1.50;99.90;;;;;;5249242;28;20536;-67
2021/11/27 06:55:33;;;;;;;90.70;39.47;;;1.50;99.90;;;;;;5249587;28;20258;-67
2021/11/27 06:58:05;;;;;;;92.00;38.63;;;1.50;99.90;;;;;;5232892;28;20204;-65
2021/11/27 07:00:37;;;;;;;88.90;39.57;;;1.50;99.90;;;;;;5249562;28;20236;-69
2021/11/27 07:03:12;;;;;;;86.07;39.93;;;1.50;99.90;;;;;;5215682;28;20526;-68
2021/11/27 07:05:44;;;;;;;89.97;38.87;;;1.50;99.90;;;;;;5232241;28;20200;-68
2021/11/27 07:08:16;;;;;;;91.03;39.13;;;1.50;99.90;;;;;;5232261;28;20236;-66
2021/11/27 07:10:51;;;;;;;90.73;39.63;;;1.60;99.90;;;;;;5232066;28;20205;-70
2021/11/27 07:13:23;;;;;;;96.77;43.00;;;1.60;99.90;;;;;;5231576;28;20214;-68
2021/11/27 07:15:58;;;;;;;109.27;45.33;;;1.60;99.90;;;;;;5249799;28;20553;-68
2021/11/27 07:18:30;;;;;;;95.70;43.00;;;1.60;99.90;;;;;;5257911;28;20545;-68
2021/11/27 07:21:05;;;;;;;94.30;41.53;;;1.60;99.90;;;;;;5253106;28;20200;-71
2021/11/27 07:23:37;;;;;;;97.30;42.57;;;1.60;99.90;;;;;;5248306;28;20602;-68
2021/11/27 07:26:09;;;;;;;90.50;42.63;;;1.70;99.90;;;;;;5249439;28;20213;-67
2021/11/27 07:28:41;;;;;;;90.80;42.23;;;1.70;99.90;;;;;;5248083;28;20225;-70
2021/11/27 07:31:16;;;;;;;89.97;42.40;;;1.70;99.90;;;;;;5248905;28;20197;-72
2021/11/27 07:33:48;;;;;;;89.60;41.07;;;1.70;99.90;;;;;;5249244;28;20624;-68
2021/11/27 07:36:20;;;;;;;90.13;41.70;;;1.80;99.90;;;;;;5249222;28;20314;-70
2021/11/27 07:38:52;;;;;;;88.20;39.10;;;1.80;99.90;;;;;;5248495;28;20605;-70
2021/11/27 07:41:24;;;;;;;88.23;39.50;;;1.80;99.90;;;;;;5248830;28;20252;-71
2021/11/27 07:43:57;;;;;;;80.30;36.77;;;1.80;99.90;;;;;;5249603;28;20204;-71
2021/11/27 07:46:29;;;;;;;83.43;36.13;;;1.80;99.90;;;;;;5248719;28;20208;-71
2021/11/27 07:49:01;;;;;;;77.93;34.93;;;1.80;99.90;;;;;;5247978;28;20308;-71
2021/11/27 07:51:34;;;;;;;80.20;35.13;;;1.80;99.90;;;;;;5249375;28;20659;-68
2021/11/27 07:54:06;;;;;;;77.20;34.67;;;1.80;99.90;;;;;;5249316;28;20208;-73
2021/11/27 07:56:41;;;;;;;80.57;37.43;;;1.90;99.90;;;;;;5231923;28;20232;-69
2021/11/27 07:59:13;;;;;;;76.80;37.00;;;1.90;99.90;;;;;;5248932;28;20212;-69
2021/11/27 08:01:45;;;;;;;77.97;35.97;;;1.90;99.90;;;;;;5249009;28;20204;-68
2021/11/27 08:04:18;;;;;;;75.57;34.30;;;1.90;99.90;;;;;;5251148;28;20216;-69
2021/11/27 08:06:50;;;;;;;78.63;34.73;;;2.00;99.90;;;;;;5253427;28;20211;-67
2021/11/27 08:09:22;;;;;;;72.57;31.30;;;2.00;99.90;;;;;;5235518;28;20239;-67
2021/11/27 08:11:54;;;;;;;73.47;31.60;;;2.00;99.90;;;;;;5252181;28;20205;-68
2021/11/27 08:14:31;;;;;;;70.23;31.30;;;2.00;99.90;;;;;;5235638;28;20211;-66
2021/11/27 08:17:03;;;;;;;74.30;32.70;;;2.00;99.90;;;;;;5252597;28;20656;-66
2021/11/27 08:19:35;;;;;;;80.77;35.50;;;2.00;99.90;;;;;;5252355;28;20596;-66
2021/11/27 08:22:07;;;;;;;81.20;35.43;;;2.00;99.90;;;;;;5253251;28;20225;-68
2021/11/27 08:24:39;;;;;;;80.40;33.73;;;2.00;99.90;;;;;;5268267;28;20236;-69
2021/11/27 08:27:11;;;;;;;70.03;33.10;;;2.00;99.90;;;;;;5256378;28;20576;-70
2021/11/27 08:29:45;;;;;;;76.30;35.10;;;2.00;99.90;;;;;;5272888;28;20208;-70
2021/11/27 08:32:17;;;;;;;90.17;36.40;;;2.00;99.90;;;;;;5256806;28;20224;-68
2021/11/27 08:34:50;;;;;;;81.73;36.70;;;1.90;99.90;;;;;;5274256;28;20219;-70
2021/11/27 08:37:22;;;;;;;87.37;39.13;;;1.90;99.90;;;;;;5273385;28;20250;-69
2021/11/27 08:39:54;;;;;;;84.60;36.97;;;2.00;99.90;;;;;;5255675;28;20211;-69
2021/11/27 08:42:28;;;;;;;87.97;37.23;;;1.90;99.90;;;;;;5255740;28;20236;-67
2021/11/27 08:45:00;;;;;;;85.60;37.73;;;2.00;99.90;;;;;;5273337;28;20223;-67
2021/11/27 08:47:33;;;;;;;77.60;34.90;;;2.00;99.90;;;;;;5255971;28;20236;-69
2021/11/27 08:50:07;;;;;;;76.27;34.00;;;2.10;99.90;;;;;;5256316;28;20207;-68
2021/11/27 08:52:40;;;;;;;82.37;34.73;;;2.10;99.90;;;;;;5273481;28;20220;-68
2021/11/27 08:55:12;;;;;;;83.33;35.70;;;2.00;99.90;;;;;;5250446;28;20223;-65
2021/11/27 08:57:44;;;;;;;79.87;35.73;;;2.10;99.90;;;;;;5265980;28;20224;-71
2021/11/27 09:00:16;;;;;;;90.17;37.30;;;2.10;99.90;;;;;;5271467;28;20200;-67
2021/11/27 09:02:50;;;;;;;88.70;39.20;;;2.20;99.90;;;;;;5251966;28;20247;-70
2021/11/27 09:05:22;;;;;;;88.93;39.50;;;2.20;99.90;;;;;;5251591;28;20642;-74
2021/11/27 09:07:54;;;;;;;91.43;37.93;;;2.20;99.90;;;;;;5251641;28;20239;-67
2021/11/27 09:10:26;;;;;;;81.67;36.10;;;2.30;99.90;;;;;;5217927;28;20545;-69
2021/11/27 09:13:01;;;;;;;82.70;34.97;;;2.30;99.90;;;;;;5257693;28;20224;-69
2021/11/27 09:15:33;;;;;;;76.63;35.00;;;2.40;99.90;;;;;;5233090;28;20196;-67
2021/11/27 09:18:09;;;;;;;74.17;34.73;;;2.40;99.90;;;;;;5238512;28;20308;-68
2021/11/27 09:20:41;;;;;;;73.27;32.70;;;2.40;99.90;;;;;;5202317;28;20477;-66
2021/11/27 09:23:16;;;;;;;68.10;30.33;;;2.40;99.90;;;;;;5244208;28;20243;-65
2021/11/27 09:25:49;;;;;;;71.63;30.73;;;2.50;99.90;;;;;;5262419;28;20196;-70
2021/11/27 09:28:24;;;;;;;67.33;29.57;;;2.50;99.90;;;;;;5260794;28;20228;-66
2021/11/27 09:30:58;;;;;;;65.47;28.23;;;2.50;99.90;;;;;;5272064;28;20203;-71
2021/11/27 09:33:32;;;;;;;61.73;28.43;;;2.50;99.90;;;;;;5272406;28;20629;-67
2021/11/27 09:36:07;;;;;;;71.07;29.07;;;2.40;99.90;;;;;;5237602;28;20207;-70
2021/11/27 09:38:42;;;;;;;64.47;28.40;;;2.50;99.90;;;;;;5272203;28;20235;-67
2021/11/27 09:41:26;;;;;;;62.90;27.40;;;2.50;99.90;;;;;;5254252;28;20207;-67
2021/11/27 09:44:03;;;;;;;60.63;27.07;;;2.50;99.90;;;;;;5272206;28;20593;-73
2021/11/27 09:46:39;;;;;;;59.43;25.90;;;2.50;99.90;;;;;;5272077;28;20203;-70
2021/11/27 09:49:21;;;;;;;55.13;24.77;;;2.60;99.90;;;;;;5272268;28;20648;-67
2021/11/27 09:51:53;;;;;;;60.27;25.10;;;2.60;99.90;;;;;;5271632;28;20188;-66
2021/11/27 09:54:26;;;;;;;62.87;25.90;;;2.70;99.90;;;;;;5253943;28;20227;-69
2021/11/27 09:56:59;;;;;;;62.30;27.37;;;2.70;99.90;;;;;;5254152;28;20660;-67
2021/11/27 09:59:31;;;;;;;52.50;24.97;;;2.80;99.90;;;;;;5254174;28;20236;-68
2021/11/27 10:02:06;;;;;;;56.47;26.13;;;2.80;99.90;;;;;;5271809;28;20215;-70
2021/11/27 10:04:48;;;;;;;54.53;24.03;;;2.80;99.90;;;;;;5271438;28;20231;-68
2021/11/27 10:07:25;;;;;;;58.50;24.70;;;2.80;99.90;;;;;;5271386;28;20211;-68
2021/11/27 10:09:58;;;;;;;57.60;25.33;;;2.80;99.90;;;;;;5253492;28;20243;-66
2021/11/27 10:12:30;;;;;;;53.23;24.77;;;2.70;99.90;;;;;;5271571;28;20272;-67
2021/11/27 10:15:02;;;;;;;57.83;26.57;;;2.70;99.90;;;;;;5271421;28;20228;-70
2021/11/27 10:17:35;;;;;;;59.93;25.97;;;2.70;99.90;;;;;;5253619;28;20473;-67
2021/11/27 10:20:08;;;;;;;56.43;26.70;;;2.80;99.90;;;;;;5199966;28;20549;-68
2021/11/27 10:22:51;;;;;;;52.77;26.60;;;2.70;99.90;;;;;;5232773;28;20603;-71
2021/11/27 10:25:26;;;;;;;62.17;27.27;;;2.60;99.90;;;;;;5231776;28;20229;-66
2021/11/27 10:28:01;;;;;;;65.50;28.40;;;2.60;99.90;;;;;;5266046;28;20211;-65
2021/11/27 10:31:03;;;;;;;59.87;28.43;;;2.60;99.90;;;;;;5270702;28;20230;-68
2021/11/27 10:33:38;;;;;;;58.23;26.63;;;2.60;99.90;;;;;;5252895;28;20269;-68
2021/11/27 10:36:20;;;;;;;62.77;27.83;;;2.70;99.90;;;;;;5253048;28;20330;-68
2021/11/27 10:38:56;;;;;;;56.63;25.57;;;2.80;99.90;;;;;;5271287;28;20192;-67
2021/11/27 10:41:35;;;;;;;49.07;23.33;;;2.90;99.90;;;;;;5270767;28;20223;-67
2021/11/27 10:44:12;;;;;;;49.40;22.50;;;2.80;99.90;;;;;;5253415;28;20566;-67
2021/11/27 10:46:47;;;;;;;52.73;25.50;;;2.80;99.90;;;;;;5259733;28;20317;-67
2021/11/27 10:49:26;;;;;;;57.70;24.60;;;2.90;99.90;;;;;;5232750;28;20289;-67
2021/11/27 10:52:16;;;;;;;56.17;24.50;;;2.90;99.90;;;;;;5232265;28;20235;-64
2021/11/27 10:54:56;;;;;;;55.73;25.87;;;3.00;99.90;;;;;;5249766;28;20233;-67
2021/11/27 10:57:38;;;;;;;57.73;26.67;;;3.00;99.90;;;;;;5249358;28;20230;-65
2021/11/27 11:00:25;;;;;;;63.40;27.73;;;3.00;99.90;;;;;;5249121;28;20204;-68
2021/11/27 11:02:58;;;;;;;55.60;26.50;;;3.00;99.90;;;;;;5249678;28;20224;-66
2021/11/27 11:05:36;;;;;;;55.70;25.40;;;3.00;99.90;;;;;;5249650;28;20231;-66
2021/11/27 11:08:09;;;;;;;59.17;26.33;;;3.00;99.90;;;;;;5231587;28;20189;-63
2021/11/27 11:10:41;;;;;;;57.97;27.00;;;3.00;99.90;;;;;;5215144;28;20520;-64
2021/11/27 11:13:13;;;;;;;59.83;27.70;;;3.00;99.90;;;;;;5249110;28;20225;-70
2021/11/27 11:15:47;;;;;;;68.53;28.20;;;3.00;99.90;;;;;;5215132;28;20200;-68
2021/11/27 11:18:26;;;;;;;58.50;27.47;;;3.00;99.90;;;;;;5249024;28;20212;-69
2021/11/27 11:21:01;;;;;;;56.73;26.47;;;3.00;99.90;;;;;;5231881;28;20188;-68
2021/11/27 11:23:37;;;;;;;61.60;28.80;;;3.00;99.90;;;;;;5248919;28;20322;-67
2021/11/27 11:26:23;;;;;;;57.13;27.40;;;2.90;99.90;;;;;;5249145;28;20268;-67
2021/11/27 11:28:58;;;;;;;56.77;27.40;;;2.90;99.90;;;;;;5249102;28;20645;-67
2021/11/27 11:31:38;;;;;;;53.83;26.10;;;2.80;99.90;;;;;;5231587;28;20258;-67
2021/11/27 11:34:12;;;;;;;56.50;27.60;;;2.80;99.90;;;;;;5249011;28;20185;-68
2021/11/27 11:37:00;;;;;;;62.37;27.67;;;2.80;99.90;;;;;;5249416;28;20578;-69
2021/11/27 11:39:36;;;;;;;67.60;30.97;;;2.80;99.90;;;;;;5248449;28;20401;-67
2021/11/27 11:42:11;;;;;;;68.63;30.83;;;2.90;99.90;;;;;;5257243;28;20204;-71
2021/11/27 11:44:47;;;;;;;70.77;31.50;;;2.90;99.90;;;;;;5249588;28;20196;-71
2021/11/27 11:47:24;;;;;;;65.43;31.80;;;2.90;99.90;;;;;;5249584;28;20200;-67
2021/11/27 11:50:10;;;;;;;75.10;35.47;;;2.90;99.90;;;;;;5236208;28;20618;-67
2021/11/27 11:52:56;;;;;;;76.83;33.63;;;2.80;99.90;;;;;;5270159;28;20531;-65
2021/11/27 11:55:30;;;;;;;73.17;33.27;;;2.80;99.90;;;;;;5251899;28;20544;-66
2021/11/27 11:58:04;;;;;;;75.47;33.23;;;2.80;99.90;;;;;;5269953;28;20184;-68
2021/11/27 12:00:38;;;;;;;77.37;35.67;;;2.80;99.90;;;;;;5269369;28;20634;-63
2021/11/27 12:03:14;;;;;;;75.13;36.00;;;2.70;99.90;;;;;;5269895;28;20199;-66
2021/11/27 12:05:55;;;;;;;93.83;41.67;;;2.70;99.90;;;;;;5269856;28;20602;-67
2021/11/27 12:09:00;;;;;;;81.83;35.27;;;2.70;99.90;;;;;;5266165;28;20726;-67
2021/11/27 12:11:48;;;;;;;78.20;33.60;;;2.70;99.90;;;;;;5251198;28;20621;-66
2021/11/27 12:14:26;;;;;;;64.33;30.60;;;2.70;99.90;;;;;;5241405;28;20217;-66
2021/11/27 12:17:05;;;;;;;69.57;32.10;;;2.70;99.90;;;;;;5253954;28;20193;-67
2021/11/27 12:19:41;;;;;;;96.50;43.50;;;2.80;99.90;;;;;;5231375;28;20247;-67
2021/11/27 12:22:31;;;;;;;87.93;38.23;;;2.80;99.90;;;;;;5230774;28;20215;-65
2021/11/27 12:25:03;;;;;;;72.37;33.30;;;2.80;99.90;;;;;;5232722;28;20240;-66
2021/11/27 12:28:04;;;;;;;72.27;31.23;;;2.80;99.90;;;;;;5230796;28;20212;-64
2021/11/27 12:30:45;;;;;;;62.57;29.30;;;2.90;99.90;;;;;;5248157;28;20247;-63
2021/11/27 12:33:48;;;;;;;63.57;28.87;;;2.90;99.90;;;;;;5248406;28;20200;-63
2021/11/27 12:36:31;;;;;;;68.37;30.10;;;3.00;99.90;;;;;;5231078;28;20282;-64
2021/11/27 12:39:13;;;;;;;72.37;31.50;;;2.90;99.90;;;;;;5248394;28;20201;-63
2021/11/27 12:42:06;;;;;;;67.43;30.23;;;2.90;99.90;;;;;;5252323;28;20291;-65
2021/11/27 12:44:48;;;;;;;66.00;31.13;;;2.90;99.90;;;;;;5265201;28;20200;-68
2021/11/27 12:47:20;;;;;;;67.20;30.90;;;2.90;99.90;;;;;;5257393;28;20506;-64
2021/11/27 12:49:55;;;;;;;67.07;29.87;;;2.90;99.90;;;;;;5256216;28;20224;-67
2021/11/27 12:52:35;;;;;;;70.13;29.80;;;2.90;99.90;;;;;;5268333;28;20624;-68
2021/11/27 12:55:07;;;;;;;61.93;28.37;;;2.90;99.90;;;;;;5259148;28;20192;-66
2021/11/27 12:57:42;;;;;;;62.57;28.07;;;2.90;99.90;;;;;;5261050;28;20523;-68
2021/11/27 13:00:23;;;;;;;63.20;28.67;;;2.90;99.90;;;;;;5268572;28;20499;-67
2021/11/27 13:02:59;;;;;;;62.77;30.03;;;2.90;99.90;;;;;;5256780;28;20215;-66
2021/11/27 13:05:36;;;;;;;63.83;29.33;;;2.90;99.90;;;;;;5244732;28;20543;-68
2021/11/27 13:08:10;;;;;;;58.23;28.43;;;3.00;99.90;;;;;;5267206;28;20192;-65
2021/11/27 13:10:47;;;;;;;54.37;27.10;;;2.90;99.90;;;;;;5255385;28;20216;-70
2021/11/27 13:13:27;;;;;;;55.33;25.80;;;3.00;99.90;;;;;;5258244;28;20235;-67
2021/11/27 13:16:11;;;;;;;53.67;25.77;;;3.00;99.90;;;;;;5239756;28;20207;-69